Time;durP1;ratioP1;P1;durP2;ratioP2;P2;SDS_P1;SDS_P2;PMS_P1;PMS_P2;Temp;Humidity;BMP_temperature;BMP_pressure;BME280_temperature;BME280_humidity;BME280_pressure;Samples;Min_cycle;Max_cycle;Signal;HPM_P1;HPM_P2
2021/04/20 00:01:40;;;;;;;30.75;13.77;;;7.60;99.90;;;;;;4939953;29;20070;-86
2021/04/20 00:04:07;;;;;;;36.78;11.52;;;7.60;99.90;;;;;;4939937;29;20056;-87
2021/04/20 00:06:33;;;;;;;28.67;13.65;;;7.50;99.90;;;;;;4939961;29;20058;-87
2021/04/20 00:09:01;;;;;;;25.02;12.65;;;7.50;99.90;;;;;;4939763;29;20530;-87
2021/04/20 00:11:28;;;;;;;26.75;13.43;;;7.50;99.90;;;;;;4940046;29;20048;-86
2021/04/20 00:13:54;;;;;;;27.75;11.52;;;7.50;99.90;;;;;;4940299;29;20059;-86
2021/04/20 00:16:21;;;;;;;23.27;11.27;;;7.50;99.90;;;;;;4939820;29;20598;-86
2021/04/20 00:18:47;;;;;;;33.83;14.35;;;7.50;99.90;;;;;;4940030;29;20048;-86
2021/04/20 00:21:14;;;;;;;23.10;11.27;;;7.50;99.90;;;;;;4939733;29;20051;-85
2021/04/20 00:23:41;;;;;;;20.55;11.52;;;7.50;99.90;;;;;;4939605;29;20370;-85
2021/04/20 00:26:08;;;;;;;24.45;11.20;;;7.50;99.90;;;;;;4939793;29;20052;-86
2021/04/20 00:28:35;;;;;;;21.88;11.05;;;7.50;99.90;;;;;;4939675;29;20066;-87
2021/04/20 00:31:01;;;;;;;20.83;11.65;;;7.50;99.90;;;;;;4939430;29;20051;-86
2021/04/20 00:33:28;;;;;;;20.60;11.18;;;7.50;99.90;;;;;;4939613;29;20059;-85
2021/04/20 00:35:54;;;;;;;19.35;11.07;;;7.50;99.90;;;;;;4939632;29;20057;-86
2021/04/20 00:38:21;;;;;;;24.35;10.98;;;7.40;99.90;;;;;;4939294;29;20492;-86
2021/04/20 00:40:48;;;;;;;21.80;10.68;;;7.40;99.90;;;;;;4939365;29;20140;-86
2021/04/20 00:43:15;;;;;;;19.40;10.52;;;7.30;99.90;;;;;;4939655;29;20051;-86
2021/04/20 00:45:43;;;;;;;19.05;9.73;;;7.30;99.90;;;;;;4939128;29;20062;-86
2021/04/20 00:48:10;;;;;;;23.02;11.18;;;7.30;99.90;;;;;;4939345;29;20327;-87
2021/04/20 00:50:38;;;;;;;27.27;11.38;;;7.30;99.90;;;;;;4938559;29;20051;-85
2021/04/20 00:53:04;;;;;;;20.15;11.23;;;7.20;99.90;;;;;;4939293;29;20059;-85
2021/04/20 00:55:31;;;;;;;22.42;10.15;;;7.20;99.90;;;;;;4939029;29;20052;-86
2021/04/20 00:57:58;;;;;;;22.63;10.68;;;7.20;99.90;;;;;;4939117;29;20055;-86
2021/04/20 01:00:26;;;;;;;70.68;31.38;;;7.10;99.90;;;;;;4938997;29;20055;-86
2021/04/20 01:02:53;;;;;;;72.07;32.88;;;7.10;99.90;;;;;;4938765;29;20071;-87
2021/04/20 01:05:21;;;;;;;63.63;29.60;;;7.00;99.90;;;;;;4938753;29;20058;-86
2021/04/20 01:07:47;;;;;;;58.67;27.75;;;6.90;99.90;;;;;;4938798;29;20062;-85
2021/04/20 01:10:14;;;;;;;59.65;28.17;;;6.90;99.90;;;;;;4939018;29;20200;-86
2021/04/20 01:12:41;;;;;;;51.97;24.10;;;6.80;99.90;;;;;;4938805;29;20059;-86
2021/04/20 01:15:10;;;;;;;52.83;24.25;;;6.80;99.90;;;;;;4938909;29;20047;-86
2021/04/20 01:17:37;;;;;;;40.13;19.92;;;6.80;99.90;;;;;;4938610;29;20070;-85
2021/04/20 01:20:08;;;;;;;37.97;17.85;;;6.80;99.90;;;;;;4938493;29;20373;-85
2021/04/20 01:22:37;;;;;;;31.88;14.18;;;6.80;99.90;;;;;;4938897;29;20055;-86
2021/04/20 01:25:05;;;;;;;30.63;14.23;;;6.80;99.90;;;;;;4938545;29;20487;-86
2021/04/20 01:27:32;;;;;;;30.02;14.82;;;6.80;99.90;;;;;;4938579;29;20048;-86
2021/04/20 01:29:59;;;;;;;26.05;11.73;;;6.90;99.90;;;;;;4938341;29;20058;-85
2021/04/20 01:32:25;;;;;;;23.10;13.13;;;6.90;99.90;;;;;;4938405;29;20082;-86
2021/04/20 01:34:52;;;;;;;22.95;10.95;;;6.90;99.90;;;;;;4938816;29;20126;-86
2021/04/20 01:37:19;;;;;;;19.15;11.07;;;6.90;99.90;;;;;;4938420;29;20060;-87
2021/04/20 01:39:46;;;;;;;23.08;11.52;;;7.00;99.90;;;;;;4938224;29;20523;-86
2021/04/20 01:42:13;;;;;;;20.50;10.38;;;6.90;99.90;;;;;;4938162;29;20058;-86
2021/04/20 01:44:40;;;;;;;24.63;12.55;;;6.90;99.90;;;;;;4938218;29;20056;-85
2021/04/20 01:47:07;;;;;;;19.60;10.57;;;6.80;99.90;;;;;;4938098;29;20066;-86
2021/04/20 01:49:34;;;;;;;23.08;10.43;;;6.80;99.90;;;;;;4938251;29;20052;-85
2021/04/20 01:52:01;;;;;;;25.48;10.80;;;6.70;99.90;;;;;;4937899;29;20065;-85
2021/04/20 01:54:27;;;;;;;25.17;10.90;;;6.70;99.90;;;;;;4938124;29;20072;-85
2021/04/20 01:56:54;;;;;;;20.10;10.23;;;6.70;99.90;;;;;;4937957;29;20489;-85
2021/04/20 01:59:22;;;;;;;19.42;9.80;;;6.70;99.90;;;;;;4937910;29;20417;-85
2021/04/20 02:01:49;;;;;;;21.40;11.05;;;6.70;99.90;;;;;;4937786;29;20059;-85
2021/04/20 02:04:15;;;;;;;22.58;10.48;;;6.60;99.90;;;;;;4938322;29;20381;-84
2021/04/20 02:06:42;;;;;;;22.02;10.88;;;6.60;99.90;;;;;;4937823;29;20059;-84
2021/04/20 02:09:09;;;;;;;20.67;11.15;;;6.60;99.90;;;;;;4937918;29;20611;-85
2021/04/20 02:11:35;;;;;;;23.35;11.13;;;6.50;99.90;;;;;;4937702;29;20083;-84
2021/04/20 02:14:02;;;;;;;21.17;11.70;;;6.50;99.90;;;;;;4938131;29;20467;-83
2021/04/20 02:16:29;;;;;;;27.08;11.25;;;6.50;99.90;;;;;;4937613;29;20062;-84
2021/04/20 02:18:58;;;;;;;21.92;10.68;;;6.50;99.90;;;;;;4937714;29;20484;-84
2021/04/20 02:21:25;;;;;;;26.45;11.00;;;6.50;99.90;;;;;;4937838;29;20062;-83
2021/04/20 02:23:52;;;;;;;29.30;12.10;;;6.50;99.90;;;;;;4937579;29;20061;-83
2021/04/20 02:26:24;;;;;;;21.73;11.65;;;6.50;99.90;;;;;;4937599;29;20047;-83
2021/04/20 02:28:50;;;;;;;25.75;11.25;;;6.40;99.90;;;;;;4937416;29;20469;-83
2021/04/20 02:31:17;;;;;;;24.33;11.48;;;6.40;99.90;;;;;;4937635;29;20068;-83
2021/04/20 02:33:44;;;;;;;25.13;11.95;;;6.40;99.90;;;;;;4937648;29;20051;-83
2021/04/20 02:36:11;;;;;;;21.30;10.50;;;6.40;99.90;;;;;;4937779;29;20461;-83
2021/04/20 02:38:38;;;;;;;22.02;11.13;;;6.40;99.90;;;;;;4938026;29;20153;-83
2021/04/20 02:41:05;;;;;;;21.77;11.15;;;6.40;99.90;;;;;;4938420;29;20060;-82
2021/04/20 02:43:32;;;;;;;21.40;10.50;;;6.30;99.90;;;;;;4938549;29;20055;-82
2021/04/20 02:46:00;;;;;;;21.15;11.45;;;6.30;99.90;;;;;;4939101;29;20066;-82
2021/04/20 02:48:26;;;;;;;23.63;11.88;;;6.20;99.90;;;;;;4938891;29;20059;-82
2021/04/20 02:50:54;;;;;;;20.17;10.60;;;6.20;99.90;;;;;;4939132;29;20052;-82
2021/04/20 02:53:21;;;;;;;21.38;11.05;;;6.20;99.90;;;;;;4939961;29;20196;-82
2021/04/20 02:55:47;;;;;;;20.25;10.07;;;6.10;99.90;;;;;;4939058;29;20051;-82
2021/04/20 02:58:16;;;;;;;27.30;11.60;;;6.20;99.90;;;;;;4940523;29;20051;-82
2021/04/20 03:00:43;;;;;;;25.80;11.15;;;6.10;99.90;;;;;;4942019;29;20056;-82
2021/04/20 03:03:10;;;;;;;20.67;10.25;;;6.10;99.90;;;;;;4944350;29;20130;-82
2021/04/20 03:05:36;;;;;;;20.15;9.57;;;6.10;99.90;;;;;;4942112;29;20060;-82
2021/04/20 03:08:05;;;;;;;21.05;10.45;;;6.10;99.90;;;;;;4944007;29;20056;-82
2021/04/20 03:10:32;;;;;;;19.73;9.75;;;6.10;99.90;;;;;;4944814;29;20058;-82
2021/04/20 03:12:58;;;;;;;28.98;11.27;;;6.10;99.90;;;;;;4945711;29;20118;-82
2021/04/20 03:15:25;;;;;;;25.85;10.40;;;6.10;99.90;;;;;;4948970;29;20052;-82
2021/04/20 03:17:51;;;;;;;21.38;10.30;;;6.00;99.90;;;;;;4949968;29;20051;-82
2021/04/20 03:20:18;;;;;;;25.23;10.93;;;6.00;99.90;;;;;;4951211;29;20131;-82
2021/04/20 03:22:45;;;;;;;20.67;11.88;;;6.00;99.90;;;;;;4953264;29;20055;-82
2021/04/20 03:25:19;;;;;;;18.02;10.55;;;6.00;99.90;;;;;;4952674;29;20051;-82
2021/04/20 03:27:47;;;;;;;19.33;9.95;;;6.00;99.90;;;;;;4954014;29;20107;-82
2021/04/20 03:30:15;;;;;;;25.23;11.25;;;5.90;99.90;;;;;;4951400;29;20062;-82
2021/04/20 03:32:43;;;;;;;24.95;11.73;;;5.90;99.90;;;;;;4954469;29;20056;-82
2021/04/20 03:35:14;;;;;;;24.20;12.25;;;5.90;99.90;;;;;;4955291;29;20052;-82
2021/04/20 03:37:43;;;;;;;22.95;11.52;;;5.80;99.90;;;;;;4955597;29;20056;-82
2021/04/20 03:40:11;;;;;;;22.58;11.18;;;5.80;99.90;;;;;;4958536;29;20107;-82
2021/04/20 03:42:43;;;;;;;24.10;12.05;;;5.80;99.90;;;;;;4959214;29;20079;-82
2021/04/20 03:45:12;;;;;;;24.08;12.02;;;5.80;99.90;;;;;;4956841;29;20047;-82
2021/04/20 03:47:42;;;;;;;20.48;11.20;;;5.70;99.90;;;;;;4958142;29;20160;-82
2021/04/20 03:50:10;;;;;;;20.27;10.52;;;5.70;99.90;;;;;;4958761;29;20040;-82
2021/04/20 03:52:39;;;;;;;25.98;12.35;;;5.60;99.90;;;;;;4958096;29;20143;-82
2021/04/20 03:55:07;;;;;;;20.75;10.73;;;5.60;99.90;;;;;;4960435;29;20088;-82
2021/04/20 03:57:35;;;;;;;22.20;12.25;;;5.60;99.90;;;;;;4960207;29;20090;-82
2021/04/20 04:00:03;;;;;;;21.13;10.38;;;5.60;99.90;;;;;;4960552;29;20130;-82
2021/04/20 04:02:31;;;;;;;18.33;11.15;;;5.50;99.90;;;;;;4960086;29;20067;-82
2021/04/20 04:04:58;;;;;;;23.38;11.13;;;5.50;99.90;;;;;;4960367;29;20059;-82
2021/04/20 04:07:24;;;;;;;28.10;10.95;;;5.50;99.90;;;;;;4960173;29;20441;-82
2021/04/20 04:09:51;;;;;;;22.27;11.82;;;5.60;99.90;;;;;;4959673;29;20138;-82
2021/04/20 04:12:18;;;;;;;21.58;12.00;;;5.60;99.90;;;;;;4959310;29;20190;-82
2021/04/20 04:14:44;;;;;;;20.70;11.43;;;5.60;99.90;;;;;;4960247;29;20086;-82
2021/04/20 04:17:13;;;;;;;23.52;10.88;;;5.60;99.90;;;;;;4959678;29;20139;-82
2021/04/20 04:19:43;;;;;;;17.70;10.45;;;5.60;99.90;;;;;;4960130;29;20130;-82
2021/04/20 04:22:11;;;;;;;19.60;11.20;;;5.50;99.90;;;;;;4960884;29;20096;-82
2021/04/20 04:24:40;;;;;;;22.58;11.00;;;5.60;99.90;;;;;;4960413;29;20107;-82
2021/04/20 04:27:07;;;;;;;19.33;10.68;;;5.50;99.90;;;;;;4959111;29;20103;-82
2021/04/20 04:29:34;;;;;;;19.52;10.95;;;5.50;99.90;;;;;;4960103;29;20052;-82
2021/04/20 04:32:00;;;;;;;22.90;11.23;;;5.50;99.90;;;;;;4960137;29;20107;-82
2021/04/20 04:34:28;;;;;;;19.67;10.02;;;5.50;99.90;;;;;;4960437;29;20095;-82
2021/04/20 04:36:55;;;;;;;20.08;10.20;;;5.50;99.90;;;;;;4960399;29;20091;-82
2021/04/20 04:39:21;;;;;;;19.00;9.85;;;5.50;99.90;;;;;;4960205;29;20055;-82
2021/04/20 04:41:49;;;;;;;20.67;10.73;;;5.50;99.90;;;;;;4958636;29;20135;-81
2021/04/20 04:44:15;;;;;;;23.33;10.50;;;5.40;99.90;;;;;;4957872;29;20059;-82
2021/04/20 04:46:42;;;;;;;21.58;11.70;;;5.40;99.90;;;;;;4957877;29;20075;-81
2021/04/20 04:49:09;;;;;;;27.10;12.50;;;5.40;99.90;;;;;;4957622;29;20047;-82
2021/04/20 04:51:37;;;;;;;26.77;14.60;;;5.30;99.90;;;;;;4957381;29;20107;-81
2021/04/20 04:54:04;;;;;;;32.85;17.73;;;5.30;99.90;;;;;;4957845;29;20588;-81
2021/04/20 04:56:30;;;;;;;27.52;14.43;;;5.30;99.90;;;;;;4959415;29;20100;-82
2021/04/20 04:58:57;;;;;;;27.67;15.13;;;5.20;99.90;;;;;;4959612;29;20051;-82
2021/04/20 05:01:24;;;;;;;30.67;16.60;;;5.30;99.90;;;;;;4959371;29;20150;-82
2021/04/20 05:03:50;;;;;;;30.50;16.00;;;5.20;99.90;;;;;;4961456;29;20111;-82
2021/04/20 05:06:17;;;;;;;29.55;14.95;;;5.30;99.90;;;;;;4960994;29;20044;-82
2021/04/20 05:08:44;;;;;;;24.92;13.77;;;5.30;99.90;;;;;;4960678;29;20091;-82
2021/04/20 05:11:11;;;;;;;25.13;11.75;;;5.30;99.90;;;;;;4960511;29;20058;-82
2021/04/20 05:13:38;;;;;;;22.15;11.88;;;5.40;99.90;;;;;;4960348;29;20066;-82
2021/04/20 05:16:05;;;;;;;19.40;11.07;;;5.40;99.90;;;;;;4960865;29;20091;-82
2021/04/20 05:23:54;;;;;;;27.73;12.70;;;5.40;99.90;;;;;;4947405;29;20059;-81
2021/04/20 05:26:20;;;;;;;28.13;12.60;;;5.50;99.90;;;;;;4952274;29;20293;-80
2021/04/20 05:28:47;;;;;;;28.52;13.38;;;5.50;99.90;;;;;;4952491;29;20058;-80
2021/04/20 05:31:13;;;;;;;23.65;12.82;;;5.60;99.90;;;;;;4953202;29;20058;-80
2021/04/20 05:33:40;;;;;;;55.50;20.27;;;5.60;99.90;;;;;;4953908;29;20111;-80
2021/04/20 05:36:07;;;;;;;43.00;17.45;;;5.60;99.90;;;;;;4955889;29;20062;-80
2021/04/20 05:41:09;;;;;;;21.48;11.07;;;5.70;99.90;;;;;;4937367;29;20067;-80
2021/04/20 05:43:36;;;;;;;19.30;11.18;;;5.70;99.90;;;;;;4940833;29;20055;-80
2021/04/20 05:46:04;;;;;;;26.13;11.95;;;5.70;99.90;;;;;;4935209;29;20075;-80
2021/04/20 05:48:31;;;;;;;21.88;11.38;;;5.80;99.90;;;;;;4937553;29;20048;-80
2021/04/20 05:50:58;;;;;;;31.48;12.75;;;5.90;99.90;;;;;;4938356;29;20569;-80
2021/04/20 05:53:25;;;;;;;30.02;11.52;;;5.90;99.90;;;;;;4938881;29;20111;-80
2021/04/20 05:55:51;;;;;;;29.10;12.82;;;5.90;99.90;;;;;;4938183;29;20131;-81
2021/04/20 05:58:19;;;;;;;21.02;11.25;;;6.00;99.90;;;;;;4936304;29;20163;-80
2021/04/20 06:00:45;;;;;;;38.17;13.15;;;6.10;99.90;;;;;;4931465;29;20066;-80
2021/04/20 06:03:12;;;;;;;23.65;10.52;;;6.10;99.90;;;;;;4930840;29;20048;-80
2021/04/20 06:05:38;;;;;;;30.65;13.90;;;6.10;99.90;;;;;;4930418;28;20032;-80
2021/04/20 06:08:05;;;;;;;26.60;12.80;;;6.20;99.90;;;;;;4924342;29;20091;-80
2021/04/20 06:10:32;;;;;;;23.35;12.68;;;6.30;99.90;;;;;;4923089;29;20083;-81
2021/04/20 06:12:59;;;;;;;29.45;13.05;;;6.30;99.90;;;;;;4921096;29;20196;-81
2021/04/20 06:15:26;;;;;;;31.65;13.73;;;6.40;99.90;;;;;;4920131;29;20131;-81
2021/04/20 06:17:55;;;;;;;23.40;12.43;;;6.40;99.90;;;;;;4919817;29;20055;-83
2021/04/20 06:20:23;;;;;;;23.80;12.60;;;6.50;99.90;;;;;;4920314;29;20377;-82
2021/04/20 06:22:50;;;;;;;27.70;13.38;;;6.50;99.90;;;;;;4919108;29;20062;-83
2021/04/20 06:25:17;;;;;;;26.80;13.48;;;6.50;99.90;;;;;;4918843;29;20056;-83
2021/04/20 06:27:44;;;;;;;22.55;12.05;;;6.60;99.90;;;;;;4918722;29;20055;-82
2021/04/20 06:30:11;;;;;;;40.00;13.80;;;6.70;99.90;;;;;;4918792;29;20052;-83
2021/04/20 06:32:39;;;;;;;30.42;12.88;;;6.70;99.90;;;;;;4918491;29;20052;-84
2021/04/20 06:35:06;;;;;;;22.25;13.38;;;6.80;99.90;;;;;;4918704;29;20056;-84
2021/04/20 06:37:34;;;;;;;27.33;12.52;;;6.90;99.90;;;;;;4918151;29;20052;-84
2021/04/20 06:40:01;;;;;;;34.78;14.40;;;7.00;99.90;;;;;;4928518;29;20094;-85
2021/04/20 06:42:27;;;;;;;35.97;14.75;;;7.10;99.90;;;;;;4937591;29;20055;-85
2021/04/20 06:44:58;;;;;;;38.22;14.82;;;7.30;99.90;;;;;;4937623;29;20051;-85
2021/04/20 06:47:25;;;;;;;40.58;15.35;;;7.40;99.90;;;;;;4937462;29;20048;-85
2021/04/20 06:49:54;;;;;;;31.70;15.70;;;7.60;99.90;;;;;;4936835;29;20054;-85
2021/04/20 06:52:23;;;;;;;29.42;14.70;;;7.60;99.90;;;;;;4937285;29;20118;-85
2021/04/20 06:54:53;;;;;;;30.08;14.98;;;7.80;99.90;;;;;;4937532;29;20055;-86
2021/04/20 06:57:22;;;;;;;39.47;18.67;;;7.90;99.90;;;;;;4937456;29;20066;-85
2021/04/20 06:59:54;;;;;;;32.33;16.25;;;8.00;99.90;;;;;;4937387;29;20079;-86
2021/04/20 07:02:24;;;;;;;31.00;16.15;;;8.20;99.90;;;;;;4937273;29;20047;-85
2021/04/20 07:04:56;;;;;;;37.72;17.30;;;8.30;99.90;;;;;;4937133;29;20052;-85
2021/04/20 07:07:44;;;;;;;34.75;16.67;;;8.50;99.90;;;;;;4936228;29;20059;-85
2021/04/20 07:10:14;;;;;;;37.28;16.67;;;8.60;99.90;;;;;;4937192;29;20350;-85
2021/04/20 07:12:41;;;;;;;36.53;17.08;;;8.90;99.90;;;;;;4936943;29;20055;-85
2021/04/20 07:15:08;;;;;;;31.05;16.02;;;9.10;99.90;;;;;;4936311;29;20055;-85
2021/04/20 07:17:58;;;;;;;32.35;15.73;;;9.70;99.90;;;;;;4936921;29;20384;-85
2021/04/20 07:20:36;;;;;;;37.15;16.65;;;10.30;99.90;;;;;;4934869;29;20217;-84
2021/04/20 07:23:50;;;;;;;28.83;16.05;;;11.60;99.90;;;;;;4937248;29;20055;-83
2021/04/20 07:26:36;;;;;;;27.45;14.52;;;13.60;99.90;;;;;;4934677;29;20068;-82
2021/04/20 07:29:17;;;;;;;29.75;15.90;;;15.30;99.90;;;;;;4936934;29;20047;-83
2021/04/20 07:31:48;;;;;;;33.97;15.95;;;16.20;99.90;;;;;;4936740;29;20404;-82
2021/04/20 07:34:20;;;;;;;30.30;16.48;;;17.20;99.90;;;;;;4937039;29;20055;-82
2021/04/20 07:36:57;;;;;;;24.27;14.75;;;17.90;99.90;;;;;;4937175;29;20074;-82
2021/04/20 07:39:23;;;;;;;26.23;16.52;;;18.40;98.80;;;;;;4936713;29;20717;-82
2021/04/20 07:41:51;;;;;;;29.77;16.58;;;18.90;79.00;;;;;;4937222;29;20058;-82
2021/04/20 07:44:21;;;;;;;29.70;16.17;;;19.00;67.90;;;;;;4936880;29;20499;-82
2021/04/20 07:46:50;;;;;;;26.67;16.05;;;18.90;83.70;;;;;;4936967;29;20056;-81
2021/04/20 07:49:19;;;;;;;26.75;15.60;;;18.90;75.20;;;;;;4936916;29;20056;-82
2021/04/20 07:51:53;;;;;;;32.08;17.25;;;18.50;71.60;;;;;;4936896;29;20063;-82
2021/04/20 07:54:25;;;;;;;31.13;17.45;;;17.40;78.20;;;;;;4937215;29;20115;-83
2021/04/20 07:56:55;;;;;;;28.20;17.52;;;16.30;91.70;;;;;;4936837;29;20107;-82
2021/04/20 07:59:24;;;;;;;31.73;17.73;;;15.30;98.50;;;;;;4936729;29;20051;-82
2021/04/20 08:01:53;;;;;;;34.25;18.05;;;14.40;99.90;;;;;;4940054;29;20051;-83
2021/04/20 08:04:39;;;;;;;32.17;19.15;;;13.80;99.90;;;;;;4939888;29;20051;-82
2021/04/20 08:07:09;;;;;;;35.05;18.80;;;10.70;99.90;;;;;;4937561;29;20437;-82
2021/04/20 08:09:37;;;;;;;32.53;18.45;;;12.90;99.90;;;;;;4939824;29;20055;-82
2021/04/20 08:12:06;;;;;;;35.70;19.92;;;12.60;99.90;;;;;;4940126;29;20086;-83
2021/04/20 08:14:37;;;;;;;30.88;18.80;;;12.40;99.90;;;;;;4939775;29;20480;-83
2021/04/20 08:17:06;;;;;;;32.13;20.25;;;12.10;99.90;;;;;;4939774;29;20059;-83
2021/04/20 08:19:34;;;;;;;39.95;21.40;;;11.90;99.90;;;;;;4939766;29;20062;-83
2021/04/20 08:22:01;;;;;;;41.67;20.20;;;11.90;99.90;;;;;;4939706;29;20055;-82
2021/04/20 08:24:29;;;;;;;42.92;20.58;;;11.80;99.90;;;;;;4939768;29;20453;-82
2021/04/20 08:26:59;;;;;;;39.45;22.67;;;11.80;99.90;;;;;;4939929;29;20062;-82
2021/04/20 08:29:27;;;;;;;38.15;20.15;;;11.80;99.90;;;;;;4939772;29;20070;-82
2021/04/20 08:31:56;;;;;;;33.00;20.33;;;11.80;99.90;;;;;;4939926;29;20051;-84
2021/04/20 08:34:26;;;;;;;40.60;23.27;;;11.90;99.90;;;;;;4939533;29;20052;-84
2021/04/20 08:36:58;;;;;;;36.70;22.20;;;11.90;99.90;;;;;;4939691;29;20122;-84
2021/04/20 08:39:30;;;;;;;45.92;22.85;;;11.80;99.90;;;;;;4939128;29;20488;-82
2021/04/20 08:42:00;;;;;;;48.30;22.50;;;11.90;99.90;;;;;;4939571;29;20476;-83
2021/04/20 08:44:29;;;;;;;40.83;21.83;;;11.80;99.90;;;;;;4939332;29;20060;-84
2021/04/20 08:46:59;;;;;;;40.38;21.67;;;11.90;99.90;;;;;;4939488;29;20051;-83
2021/04/20 08:49:42;;;;;;;39.08;22.55;;;11.90;99.90;;;;;;4939071;29;20055;-84
2021/04/20 08:52:15;;;;;;;47.17;22.15;;;11.90;99.90;;;;;;4937776;29;20056;-83
2021/04/20 08:55:01;;;;;;;35.40;20.48;;;12.00;99.90;;;;;;4939097;29;20058;-82
2021/04/20 08:57:33;;;;;;;38.20;20.02;;;12.00;99.90;;;;;;4938892;29;20055;-83
2021/04/20 09:00:20;;;;;;;37.67;19.52;;;8.60;99.90;;;;;;4938415;29;20054;-83
2021/04/20 09:02:54;;;;;;;32.13;18.05;;;12.10;99.90;;;;;;4939061;29;20053;-83
2021/04/20 09:05:23;;;;;;;30.98;18.25;;;12.20;99.90;;;;;;4939211;29;20059;-81
2021/04/20 09:07:56;;;;;;;37.38;19.35;;;12.20;99.90;;;;;;4938883;29;20053;-83
2021/04/20 09:10:27;;;;;;;29.13;17.57;;;12.30;99.90;;;;;;4938660;29;20055;-83
2021/04/20 09:12:57;;;;;;;39.50;20.10;;;12.30;99.90;;;;;;4938440;29;20138;-83
2021/04/20 09:15:23;;;;;;;32.08;18.67;;;12.30;99.90;;;;;;4939036;29;20110;-83
2021/04/20 09:17:51;;;;;;;36.75;20.33;;;12.30;99.90;;;;;;4938814;29;20060;-82
2021/04/20 09:20:21;;;;;;;36.55;21.90;;;12.40;99.90;;;;;;4938628;29;20098;-83
2021/04/20 09:22:51;;;;;;;34.08;19.90;;;12.40;99.90;;;;;;4938485;29;20062;-82
2021/04/20 09:25:21;;;;;;;36.00;20.55;;;12.50;99.90;;;;;;4938997;29;20047;-81
2021/04/20 09:27:52;;;;;;;37.80;20.02;;;12.50;99.90;;;;;;4937885;29;20106;-82
2021/04/20 09:30:19;;;;;;;32.17;19.67;;;11.70;99.90;;;;;;4938365;29;20052;-83
2021/04/20 09:32:47;;;;;;;40.35;22.13;;;12.60;99.90;;;;;;4938269;29;20051;-82
2021/04/20 09:35:14;;;;;;;40.00;22.65;;;12.70;99.90;;;;;;4938347;29;20065;-81
2021/04/20 09:37:41;;;;;;;34.45;21.10;;;12.70;99.90;;;;;;4937974;29;20071;-83
2021/04/20 09:40:08;;;;;;;39.47;20.63;;;12.80;99.90;;;;;;4936626;29;20055;-83
2021/04/20 09:42:35;;;;;;;48.38;22.60;;;12.80;99.90;;;;;;4937743;29;20059;-83
2021/04/20 09:45:10;;;;;;;34.97;20.30;;;12.90;99.90;;;;;;4938264;29;20051;-84
2021/04/20 09:47:58;;;;;;;;;;;12.90;99.90;;;;;;4938494;29;20052;-83
2021/04/20 09:50:28;;;;;;;36.05;19.35;;;12.90;99.90;;;;;;4937980;29;19923;-83
2021/04/20 09:53:06;;;;;;;32.25;19.90;;;12.90;99.90;;;;;;4938113;29;20071;-83
2021/04/20 09:55:34;;;;;;;43.67;21.02;;;13.00;99.90;;;;;;4938071;29;20067;-83
2021/04/20 09:58:01;;;;;;;36.90;20.98;;;13.00;99.90;;;;;;4937901;29;20056;-83
2021/04/20 10:00:28;;;;;;;38.03;20.15;;;13.10;99.90;;;;;;4937972;29;20075;-82
2021/04/20 10:03:07;;;;;;;33.72;20.88;;;13.10;99.90;;;;;;4937632;29;20055;-83
2021/04/20 10:05:36;;;;;;;41.33;21.88;;;13.10;99.90;;;;;;4938089;29;20055;-83
2021/04/20 10:08:19;;;;;;;41.33;23.00;;;13.10;99.90;;;;;;4937736;29;20546;-82
2021/04/20 10:10:51;;;;;;;40.65;23.33;;;13.20;99.90;;;;;;4937556;29;20377;-82
2021/04/20 10:13:28;;;;;;;38.75;22.55;;;13.20;99.90;;;;;;4936958;29;20056;-83
2021/04/20 10:16:00;;;;;;;45.30;22.48;;;13.30;99.90;;;;;;4937262;29;20059;-83
2021/04/20 10:18:33;;;;;;;38.28;23.08;;;13.30;99.90;;;;;;4937341;29;20069;-82
2021/04/20 10:21:04;;;;;;;39.75;23.35;;;13.40;99.90;;;;;;4937787;29;20051;-82
2021/04/20 10:23:35;;;;;;;37.70;22.70;;;13.40;99.90;;;;;;4935821;29;20066;-82
2021/04/20 10:26:06;;;;;;;37.50;22.00;;;13.40;99.90;;;;;;4937736;29;20052;-83
2021/04/20 10:28:34;;;;;;;36.42;21.00;;;13.40;99.90;;;;;;4937536;29;20070;-83
2021/04/20 10:31:07;;;;;;;48.25;24.15;;;13.40;99.90;;;;;;4937397;29;20143;-83
2021/04/20 10:33:34;;;;;;;40.97;22.50;;;13.40;99.90;;;;;;4937869;29;20056;-82
2021/04/20 10:36:01;;;;;;;43.30;23.67;;;13.50;99.90;;;;;;4937460;29;20063;-82
2021/04/20 10:38:29;;;;;;;42.13;23.30;;;13.60;99.90;;;;;;4937721;29;20106;-82
2021/04/20 10:40:56;;;;;;;38.85;22.38;;;13.60;99.90;;;;;;4937196;29;20070;-83
2021/04/20 10:43:23;;;;;;;41.10;23.17;;;13.60;99.90;;;;;;4937544;29;20052;-82
2021/04/20 10:45:50;;;;;;;44.15;23.63;;;13.70;99.90;;;;;;4937617;29;20051;-83
2021/04/20 10:48:23;;;;;;;39.30;24.50;;;13.80;99.90;;;;;;4937343;29;20063;-82
2021/04/20 10:50:51;;;;;;;41.45;23.88;;;13.80;99.90;;;;;;4937205;29;20058;-82
2021/04/20 10:53:20;;;;;;;43.45;23.67;;;13.80;99.90;;;;;;4937570;29;20078;-83
2021/04/20 10:55:48;;;;;;;39.40;23.52;;;13.70;99.90;;;;;;4937537;29;20058;-82
2021/04/20 10:58:15;;;;;;;55.00;23.77;;;13.80;99.90;;;;;;4937138;29;20058;-82
2021/04/20 11:00:41;;;;;;;38.65;22.85;;;13.80;99.90;;;;;;4937451;29;20358;-82
2021/04/20 11:03:08;;;;;;;38.25;22.98;;;13.80;99.90;;;;;;4937367;29;20052;-82
2021/04/20 11:05:35;;;;;;;42.75;22.38;;;13.80;99.90;;;;;;4937310;29;20061;-82
2021/04/20 11:08:02;;;;;;;43.53;21.77;;;13.80;99.90;;;;;;4937124;29;20047;-82
2021/04/20 11:10:35;;;;;;;40.20;23.33;;;13.80;99.90;;;;;;4936835;29;20048;-83
2021/04/20 11:13:02;;;;;;;41.78;22.52;;;13.90;99.90;;;;;;4937093;29;20384;-82
2021/04/20 11:15:29;;;;;;;41.42;23.95;;;13.90;99.90;;;;;;4936897;29;20052;-82
2021/04/20 11:18:03;;;;;;;35.47;21.42;;;14.00;99.90;;;;;;4936934;29;20052;-82
2021/04/20 11:20:32;;;;;;;40.33;23.30;;;14.10;99.90;;;;;;4937129;29;20058;-82
2021/04/20 11:23:09;;;;;;;35.88;21.27;;;14.20;99.90;;;;;;4936931;29;20051;-82
2021/04/20 11:25:37;;;;;;;34.50;20.83;;;14.20;99.90;;;;;;4936915;29;20346;-82
2021/04/20 11:28:08;;;;;;;33.20;18.92;;;14.30;99.90;;;;;;4937272;29;20059;-82
2021/04/20 11:30:35;;;;;;;41.33;21.58;;;14.30;99.90;;;;;;4936653;29;20055;-82
2021/04/20 11:33:04;;;;;;;36.47;19.58;;;14.20;99.90;;;;;;4936957;29;20480;-82
2021/04/20 11:35:31;;;;;;;37.33;19.23;;;14.20;99.90;;;;;;4938405;29;20059;-82
2021/04/20 11:38:00;;;;;;;35.33;18.42;;;14.20;99.90;;;;;;4941041;29;20135;-82
2021/04/20 11:40:29;;;;;;;31.98;16.35;;;14.20;99.90;;;;;;4940523;29;20074;-82
2021/04/20 11:42:56;;;;;;;29.65;16.58;;;14.30;99.90;;;;;;4940479;29;20043;-82
2021/04/20 11:45:23;;;;;;;36.13;19.13;;;14.40;99.90;;;;;;4940694;29;20066;-82
2021/04/20 11:48:09;;;;;;;36.92;16.88;;;14.50;99.90;;;;;;4940632;29;20055;-82
2021/04/20 11:50:36;;;;;;;33.90;17.95;;;14.00;99.60;;;;;;4939885;29;20059;-81
2021/04/20 11:53:04;;;;;;;38.38;19.58;;;14.60;99.90;;;;;;4940223;29;20465;-82
2021/04/20 11:55:32;;;;;;;28.20;15.82;;;14.70;99.90;;;;;;4940495;29;20052;-82
2021/04/20 11:58:07;;;;;;;31.55;17.13;;;14.60;99.90;;;;;;4940439;29;20062;-82
2021/04/20 12:00:35;;;;;;;32.08;16.48;;;14.70;98.30;;;;;;4940171;29;20378;-82
2021/04/20 12:03:16;;;;;;;37.45;16.05;;;14.70;98.20;;;;;;4940142;29;20052;-82
2021/04/20 12:05:44;;;;;;;37.78;17.30;;;14.80;96.10;;;;;;4939748;29;20066;-82
2021/04/20 12:08:14;;;;;;;32.92;16.38;;;15.00;96.50;;;;;;4940038;29;20057;-82
2021/04/20 12:10:41;;;;;;;33.35;18.02;;;15.20;96.30;;;;;;4940077;29;20369;-81
2021/04/20 12:13:08;;;;;;;28.63;15.95;;;15.30;96.40;;;;;;4940042;29;20056;-81
2021/04/20 12:15:35;;;;;;;26.75;15.68;;;15.30;94.90;;;;;;4940083;29;20058;-81
2021/04/20 12:18:04;;;;;;;29.90;15.50;;;15.40;94.20;;;;;;4939827;29;20052;-81
2021/04/20 12:20:31;;;;;;;30.98;16.17;;;15.40;93.20;;;;;;4939788;29;20066;-81
2021/04/20 12:22:59;;;;;;;27.13;15.90;;;15.50;92.30;;;;;;4939564;29;20070;-81
2021/04/20 12:25:26;;;;;;;33.55;17.10;;;15.50;93.80;;;;;;4939331;29;20486;-81
2021/04/20 12:27:54;;;;;;;28.15;15.43;;;15.50;91.60;;;;;;4939645;29;20106;-82
2021/04/20 12:30:22;;;;;;;33.30;16.13;;;15.50;90.10;;;;;;4939620;29;20147;-81
2021/04/20 12:32:49;;;;;;;25.50;13.30;;;15.50;88.50;;;;;;4939535;29;20114;-82
2021/04/20 12:35:15;;;;;;;23.08;13.48;;;15.60;88.30;;;;;;4939718;29;20052;-80
2021/04/20 12:37:42;;;;;;;23.60;13.02;;;15.70;86.50;;;;;;4942730;29;20382;-79
2021/04/20 12:40:10;;;;;;;29.73;14.07;;;15.70;74.30;;;;;;4939487;29;20056;-80
2021/04/20 12:42:40;;;;;;;21.25;12.88;;;15.70;72.90;;;;;;4939337;29;20134;-80
2021/04/20 12:45:10;;;;;;;24.48;12.95;;;15.60;75.60;;;;;;4939400;29;20056;-80
2021/04/20 12:47:37;;;;;;;20.55;13.93;;;15.60;74.10;;;;;;4938234;29;20062;-80
2021/04/20 12:50:04;;;;;;;28.60;15.60;;;15.70;76.30;;;;;;4939063;29;20044;-80